createdAt,value
2023-09-09T00:00:58.201Z,14.32
2023-09-09T00:03:26.701Z,13.57
2023-09-09T00:05:54.329Z,13.68
2023-09-09T00:08:21.974Z,14.48
2023-09-09T00:10:49.522Z,14.07
2023-09-09T00:13:17.083Z,14.57
2023-09-09T00:15:44.609Z,13.88
2023-09-09T00:18:13.447Z,14.07
2023-09-09T00:20:41.914Z,13.63
2023-09-09T00:23:09.653Z,15.27
2023-09-09T00:25:37.545Z,13.70
2023-09-09T00:28:05.556Z,13.97
2023-09-09T00:30:33.181Z,15.40
2023-09-09T00:33:01.891Z,15.68
2023-09-09T00:35:30.820Z,14.35
2023-09-09T00:37:58.334Z,14.93
2023-09-09T00:40:26.151Z,14.23
2023-09-09T00:42:53.639Z,14.90
2023-09-09T00:45:21.278Z,14.60
2023-09-09T00:47:48.886Z,14.87
2023-09-09T00:50:16.526Z,14.85
2023-09-09T00:52:48.057Z,14.70
2023-09-09T00:55:15.972Z,14.17
2023-09-09T00:57:43.511Z,13.87
2023-09-09T01:00:12.154Z,14.07
2023-09-09T01:02:39.903Z,14.00
2023-09-09T01:05:08.501Z,14.07
2023-09-09T01:07:50.291Z,13.73
2023-09-09T01:10:18.470Z,15.03
2023-09-09T01:12:46.159Z,16.33
2023-09-09T01:15:14.075Z,16.13
2023-09-09T01:17:42.691Z,16.73
2023-09-09T01:20:14.857Z,16.73
2023-09-09T01:22:44.671Z,14.93
2023-09-09T01:25:12.389Z,16.53
2023-09-09T01:27:39.936Z,15.40
2023-09-09T01:30:08.048Z,14.37
2023-09-09T01:32:35.604Z,14.97
2023-09-09T01:35:06.079Z,14.57
2023-09-09T01:37:34.030Z,14.80
2023-09-09T01:40:10.967Z,14.80
2023-09-09T01:42:39.198Z,14.37
2023-09-09T01:45:08.904Z,15.37
2023-09-09T01:47:36.407Z,15.20
2023-09-09T01:50:04.353Z,16.03
2023-09-09T01:52:31.903Z,15.10
2023-09-09T01:54:59.904Z,14.80
2023-09-09T01:57:30.413Z,13.87
2023-09-09T01:59:59.235Z,15.47
2023-09-09T02:02:26.854Z,15.10
2023-09-09T02:04:54.371Z,15.47
2023-09-09T02:07:22.966Z,14.57
2023-09-09T02:09:50.790Z,14.57
2023-09-09T02:12:18.232Z,14.53
2023-09-09T02:14:47.041Z,14.03
2023-09-09T02:17:14.520Z,14.07
2023-09-09T02:19:41.990Z,14.60
2023-09-09T02:22:09.433Z,13.63
2023-09-09T02:24:36.902Z,14.63
2023-09-09T02:27:04.716Z,14.03
2023-09-09T02:29:32.195Z,14.70
2023-09-09T02:32:00.968Z,14.07
2023-09-09T02:34:29.000Z,13.50
2023-09-09T02:37:11.645Z,13.43
2023-09-09T02:39:39.108Z,13.53
2023-09-09T02:42:06.875Z,13.93
2023-09-09T02:44:34.352Z,14.73
2023-09-09T02:47:04.432Z,14.30
2023-09-09T02:49:32.838Z,14.67
2023-09-09T02:52:00.350Z,15.30
2023-09-09T02:54:27.873Z,16.67
2023-09-09T02:56:55.352Z,16.87
2023-09-09T02:59:24.074Z,16.60
2023-09-09T03:01:51.607Z,17.33
2023-09-09T03:04:20.754Z,17.00
2023-09-09T03:06:48.262Z,18.30
2023-09-09T03:09:15.947Z,18.67
2023-09-09T03:11:43.432Z,18.67
2023-09-09T03:14:11.322Z,17.03
2023-09-09T03:16:39.064Z,15.77
2023-09-09T03:19:06.750Z,16.20
2023-09-09T03:21:35.585Z,15.40
2023-09-09T03:24:03.058Z,16.10
2023-09-09T03:26:33.092Z,16.23
2023-09-09T03:29:00.998Z,18.27
2023-09-09T03:31:28.850Z,17.10
2023-09-09T03:33:56.374Z,16.80
2023-09-09T03:36:23.868Z,16.33
2023-09-09T03:38:52.710Z,16.20
2023-09-09T03:41:20.217Z,16.10
2023-09-09T03:43:47.849Z,16.00
2023-09-09T03:46:15.396Z,15.70
2023-09-09T03:48:43.458Z,17.17
2023-09-09T03:51:10.981Z,16.37
2023-09-09T03:53:39.086Z,15.00
2023-09-09T03:56:08.273Z,15.13
2023-09-09T03:58:35.824Z,14.83
2023-09-09T04:01:07.363Z,15.53
2023-09-09T04:03:36.495Z,14.87
2023-09-09T04:06:07.144Z,15.50
2023-09-09T04:08:36.423Z,15.20
2023-09-09T04:11:04.992Z,15.67
2023-09-09T04:13:38.559Z,16.10
2023-09-09T04:16:06.468Z,15.47
2023-09-09T04:18:45.817Z,15.93
2023-09-09T04:21:16.265Z,15.50
2023-09-09T04:23:43.744Z,16.93
2023-09-09T04:26:11.863Z,15.70
2023-09-09T04:28:41.193Z,15.50
2023-09-09T04:31:11.656Z,16.87
2023-09-09T04:33:42.055Z,17.37
2023-09-09T04:36:10.457Z,17.73
2023-09-09T04:38:40.533Z,19.40
2023-09-09T04:41:09.958Z,19.87
2023-09-09T04:43:37.792Z,19.47
2023-09-09T04:46:07.099Z,19.07
2023-09-09T04:48:34.693Z,19.93
2023-09-09T04:51:02.502Z,19.67
2023-09-09T04:53:29.988Z,18.27
2023-09-09T04:55:57.743Z,18.73
2023-09-09T04:58:26.335Z,16.60
2023-09-09T05:00:53.919Z,16.17
2023-09-09T05:03:22.999Z,16.93
2023-09-09T05:05:50.725Z,16.67
2023-09-09T05:08:18.277Z,17.57
2023-09-09T05:10:46.188Z,16.50
2023-09-09T05:13:13.738Z,16.60
2023-09-09T05:15:41.224Z,16.73
2023-09-09T05:18:08.756Z,15.77
2023-09-09T05:20:37.851Z,17.47
2023-09-09T05:23:05.613Z,16.07
2023-09-09T05:25:33.178Z,16.70
2023-09-09T05:28:00.649Z,17.60
2023-09-09T05:30:28.268Z,16.50
2023-09-09T05:32:55.976Z,16.43
2023-09-09T05:35:23.713Z,17.57
2023-09-09T05:37:52.587Z,15.43
2023-09-09T05:40:20.545Z,15.97
2023-09-09T05:42:48.038Z,15.67
2023-09-09T05:45:16.585Z,16.10
2023-09-09T05:47:46.054Z,15.83
2023-09-09T05:50:13.639Z,16.53
2023-09-09T05:52:41.889Z,16.43
2023-09-09T05:55:11.562Z,16.45
2023-09-09T05:57:40.148Z,16.90
2023-09-09T06:00:08.238Z,17.00
2023-09-09T06:02:44.761Z,18.03
2023-09-09T06:05:12.530Z,17.00
2023-09-09T06:07:42.338Z,16.87
2023-09-09T06:10:12.456Z,16.47
2023-09-09T06:12:39.980Z,16.60
2023-09-09T06:15:08.153Z,16.43
2023-09-09T06:17:37.375Z,17.23
2023-09-09T06:20:05.672Z,16.87
2023-09-09T06:22:33.285Z,16.80
2023-09-09T06:25:02.013Z,17.37
2023-09-09T06:27:30.951Z,17.53
2023-09-09T06:29:58.447Z,16.75
2023-09-09T06:32:26.097Z,16.42
2023-09-09T06:34:53.754Z,16.37
2023-09-09T06:37:21.396Z,17.20
2023-09-09T06:39:48.877Z,16.47
2023-09-09T06:42:16.308Z,16.67
2023-09-09T06:44:49.696Z,17.17
2023-09-09T06:47:17.139Z,16.23
2023-09-09T06:49:44.612Z,16.83
2023-09-09T06:52:12.365Z,17.43
2023-09-09T06:54:39.908Z,16.70
2023-09-09T06:57:07.366Z,16.33
2023-09-09T06:59:37.455Z,16.23
2023-09-09T07:02:07.315Z,15.85
2023-09-09T07:04:35.066Z,15.50
2023-09-09T07:07:12.922Z,15.10
2023-09-09T07:09:41.345Z,15.40
2023-09-09T07:12:11.009Z,17.93
2023-09-09T07:14:41.474Z,19.60
2023-09-09T07:17:11.304Z,20.33
2023-09-09T07:19:38.848Z,20.63
2023-09-09T07:22:06.921Z,19.37
2023-09-09T07:24:34.396Z,20.85
2023-09-09T07:27:02.994Z,22.40
2023-09-09T07:29:30.514Z,22.50
2023-09-09T07:31:58.110Z,22.13
2023-09-09T07:34:27.546Z,21.17
2023-09-09T07:36:55.010Z,21.38
2023-09-09T07:39:22.436Z,23.27
2023-09-09T07:41:49.879Z,24.87
2023-09-09T07:44:17.309Z,24.48
2023-09-09T07:46:45.213Z,23.38
2023-09-09T07:49:12.816Z,22.83
2023-09-09T07:51:41.613Z,24.85
2023-09-09T07:54:09.136Z,23.13
2023-09-09T07:56:36.808Z,24.03
2023-09-09T07:59:04.368Z,22.70
2023-09-09T08:01:31.969Z,23.92
2023-09-09T08:03:59.525Z,22.83
2023-09-09T08:06:27.272Z,23.30
2023-09-09T08:08:56.061Z,21.50
2023-09-09T08:11:23.581Z,22.95
2023-09-09T08:13:51.060Z,21.80
2023-09-09T08:16:18.592Z,21.85
2023-09-09T08:18:46.062Z,20.65
2023-09-09T08:21:14.156Z,21.15
2023-09-09T08:23:41.709Z,22.77
2023-09-09T08:26:12.196Z,19.75
2023-09-09T08:28:40.913Z,19.55
2023-09-09T08:31:08.407Z,20.50
2023-09-09T08:33:36.448Z,21.48
2023-09-09T08:36:05.180Z,20.70
2023-09-09T08:38:32.744Z,19.98
2023-09-09T08:41:04.605Z,20.73
2023-09-09T08:43:36.053Z,18.92
2023-09-09T08:46:08.802Z,18.70
2023-09-09T08:48:38.672Z,19.02
2023-09-09T08:51:06.518Z,19.80
2023-09-09T08:53:36.348Z,15.98
2023-09-09T08:56:04.220Z,16.75
2023-09-09T08:58:32.015Z,18.40
2023-09-09T09:01:01.711Z,18.65
2023-09-09T09:03:29.289Z,17.40
2023-09-09T09:05:56.755Z,16.90
2023-09-09T09:08:24.280Z,16.42
2023-09-09T09:10:51.880Z,17.27
2023-09-09T09:13:19.346Z,16.88
2023-09-09T09:15:46.794Z,17.33
2023-09-09T09:18:15.682Z,16.63
2023-09-09T09:20:43.202Z,16.08
2023-09-09T09:23:12.277Z,17.02
2023-09-09T09:25:42.029Z,16.33
2023-09-09T09:28:09.782Z,16.35
2023-09-09T09:30:37.249Z,16.10
2023-09-09T09:33:05.021Z,15.80
2023-09-09T09:35:34.509Z,16.95
2023-09-09T09:38:02.956Z,15.55
2023-09-09T09:40:31.458Z,16.63
2023-09-09T09:42:58.968Z,16.73
2023-09-09T09:45:26.964Z,14.27
2023-09-09T09:47:54.775Z,16.90
2023-09-09T09:50:23.625Z,16.20
2023-09-09T09:52:59.350Z,14.43
2023-09-09T09:55:26.845Z,15.50
2023-09-09T09:57:55.874Z,15.82
2023-09-09T10:00:23.898Z,15.38
2023-09-09T10:02:53.659Z,16.40
2023-09-09T10:05:22.285Z,13.80
2023-09-09T10:07:53.038Z,13.85
2023-09-09T10:10:23.393Z,15.65
2023-09-09T10:12:53.011Z,15.13
2023-09-09T10:15:21.088Z,16.88
2023-09-09T10:17:50.443Z,14.90
2023-09-09T10:20:18.909Z,13.88
2023-09-09T10:22:47.633Z,15.10
2023-09-09T10:25:15.385Z,14.45
2023-09-09T10:27:44.588Z,15.65
2023-09-09T10:30:12.458Z,14.32
2023-09-09T10:32:40.272Z,12.50
2023-09-09T10:35:08.566Z,13.55
2023-09-09T10:37:37.266Z,14.02
2023-09-09T10:40:07.110Z,12.75
2023-09-09T10:42:36.981Z,13.93
2023-09-09T10:45:29.243Z,12.10
2023-09-09T10:47:59.051Z,13.68
2023-09-09T10:50:40.233Z,13.20
2023-09-09T10:53:15.039Z,13.63
2023-09-09T10:55:42.572Z,13.63
2023-09-09T10:58:10.280Z,13.20
2023-09-09T11:00:38.986Z,13.48
2023-09-09T11:03:12.087Z,12.43
2023-09-09T11:05:57.632Z,12.07
2023-09-09T11:08:37.829Z,12.45
2023-09-09T11:11:13.512Z,12.18
2023-09-09T11:13:51.701Z,13.00
2023-09-09T11:16:29.621Z,11.98
2023-09-09T11:18:59.548Z,12.32
2023-09-09T11:21:26.146Z,12.15
2023-09-09T11:23:54.121Z,11.55
2023-09-09T11:26:21.877Z,11.82
2023-09-09T11:28:50.601Z,11.95
2023-09-09T11:31:18.668Z,11.27
2023-09-09T11:33:46.125Z,10.88
2023-09-09T11:36:18.747Z,12.25
2023-09-09T11:38:46.372Z,11.95
2023-09-09T11:41:20.592Z,11.23
2023-09-09T11:43:57.579Z,10.93
2023-09-09T11:46:25.258Z,11.90
2023-09-09T11:48:52.889Z,11.55
2023-09-09T11:51:22.360Z,11.02
2023-09-09T11:53:49.970Z,10.18
2023-09-09T11:56:20.020Z,11.32
2023-09-09T11:58:48.107Z,10.00
2023-09-09T12:01:15.646Z,10.18
2023-09-09T12:03:43.317Z,9.95
2023-09-09T12:06:12.767Z,10.40
2023-09-09T12:08:41.845Z,9.57
2023-09-09T12:11:10.861Z,9.98
2023-09-09T12:13:38.978Z,10.07
2023-09-09T12:16:07.704Z,9.65
2023-09-09T12:18:35.363Z,9.13
2023-09-09T12:21:03.573Z,8.73
2023-09-09T12:23:31.679Z,9.77
2023-09-09T12:26:07.973Z,9.82
2023-09-09T12:28:35.585Z,9.07
2023-09-09T12:31:03.134Z,9.13
2023-09-09T12:33:30.707Z,9.38
2023-09-09T12:35:58.158Z,9.07
2023-09-09T12:38:25.684Z,8.95
2023-09-09T12:40:53.532Z,8.93
2023-09-09T12:43:24.643Z,8.55
2023-09-09T12:45:53.301Z,8.60
2023-09-09T12:48:21.433Z,7.53
2023-09-09T12:50:49.350Z,8.32
2023-09-09T12:53:17.753Z,8.32
2023-09-09T12:55:45.398Z,8.93
2023-09-09T12:58:13.783Z,9.55
2023-09-09T13:00:42.708Z,10.15
2023-09-09T13:03:11.145Z,10.32
2023-09-09T13:05:38.819Z,9.52
2023-09-09T13:08:06.399Z,9.52
2023-09-09T13:10:33.896Z,9.50
2023-09-09T13:13:01.373Z,9.35
2023-09-09T13:15:28.983Z,9.95
2023-09-09T13:17:57.947Z,9.55
2023-09-09T13:20:25.380Z,8.95
2023-09-09T13:22:52.817Z,9.15
2023-09-09T13:25:20.396Z,8.80
2023-09-09T13:27:49.063Z,8.38
2023-09-09T13:30:16.822Z,7.90
2023-09-09T13:32:44.332Z,8.10
2023-09-09T13:35:13.203Z,8.65
2023-09-09T13:37:40.734Z,9.18
2023-09-09T13:40:09.424Z,8.95
2023-09-09T13:42:37.027Z,8.82
2023-09-09T13:47:34.994Z,8.40
2023-09-09T13:50:03.523Z,8.82
2023-09-09T13:52:32.781Z,8.43
2023-09-09T13:55:00.242Z,8.68
2023-09-09T13:57:27.696Z,8.50
2023-09-09T13:59:55.158Z,8.45
2023-09-09T14:02:22.720Z,7.82
2023-09-09T14:04:50.265Z,8.75
2023-09-09T14:07:17.735Z,8.27
2023-09-09T14:09:46.645Z,8.90
2023-09-09T14:12:14.108Z,8.88
2023-09-09T14:14:41.588Z,8.55
2023-09-09T14:17:09.012Z,7.57
2023-09-09T14:19:38.785Z,7.97
2023-09-09T14:22:06.378Z,7.05
2023-09-09T14:24:33.817Z,7.25
2023-09-09T14:27:02.645Z,7.45
2023-09-09T14:29:30.099Z,7.00
2023-09-09T14:31:57.578Z,7.15
2023-09-09T14:34:25.053Z,7.63
2023-09-09T14:36:52.767Z,7.10
2023-09-09T14:39:20.346Z,6.38
2023-09-09T14:41:47.823Z,6.95
2023-09-09T14:44:16.655Z,7.68
2023-09-09T14:46:44.108Z,6.63
2023-09-09T14:49:11.664Z,7.07
2023-09-09T14:51:39.208Z,6.63
2023-09-09T14:54:07.366Z,7.07
2023-09-09T14:56:34.861Z,7.20
2023-09-09T14:59:02.360Z,6.80
2023-09-09T15:01:31.296Z,6.88
2023-09-09T15:03:58.907Z,6.93
2023-09-09T15:06:26.336Z,6.68
2023-09-09T15:08:53.932Z,6.20
2023-09-09T15:11:22.112Z,6.75
2023-09-09T15:13:50.241Z,7.10
2023-09-09T15:16:17.892Z,6.32
2023-09-09T15:18:46.904Z,6.70
2023-09-09T15:21:14.639Z,5.50
2023-09-09T15:23:42.100Z,7.05
2023-09-09T15:26:09.610Z,6.75
2023-09-09T15:28:37.401Z,7.10
2023-09-09T15:31:06.568Z,6.65
2023-09-09T15:33:34.136Z,6.53
2023-09-09T15:36:02.976Z,6.20
2023-09-09T15:38:30.431Z,6.65
2023-09-09T15:40:57.919Z,6.53
2023-09-09T15:43:25.505Z,6.40
2023-09-09T15:46:02.901Z,6.10
2023-09-09T15:48:30.991Z,6.47
2023-09-09T15:50:58.557Z,6.90
2023-09-09T15:53:27.397Z,7.13
2023-09-09T15:55:54.848Z,7.65
2023-09-09T15:58:22.473Z,6.88
2023-09-09T16:00:50.207Z,6.88
2023-09-09T16:03:17.966Z,6.90
2023-09-09T16:05:46.317Z,8.63
2023-09-09T16:08:13.764Z,7.60
2023-09-09T16:10:42.587Z,7.22
2023-09-09T16:13:10.090Z,5.97
2023-09-09T16:15:37.705Z,6.70
2023-09-09T16:18:05.596Z,7.32
2023-09-09T16:20:34.322Z,7.10
2023-09-09T16:23:01.852Z,7.40
2023-09-09T16:25:29.572Z,7.03
2023-09-09T16:27:58.415Z,7.38
2023-09-09T16:30:25.869Z,7.93
2023-09-09T16:32:53.349Z,8.52
2023-09-09T16:35:21.040Z,9.63
2023-09-09T16:37:48.491Z,7.57
2023-09-09T16:40:15.995Z,7.65
2023-09-09T16:42:43.667Z,8.90
2023-09-09T16:45:12.548Z,7.95
2023-09-09T16:47:40.102Z,8.60
2023-09-09T16:50:07.937Z,9.48
2023-09-09T16:52:35.592Z,8.75
2023-09-09T16:55:03.530Z,9.35
2023-09-09T16:57:31.809Z,10.60
2023-09-09T16:59:59.444Z,9.07
2023-09-09T17:02:31.216Z,9.18
2023-09-09T17:04:59.157Z,9.18
2023-09-09T17:07:26.655Z,9.23
2023-09-09T17:09:54.360Z,8.60
2023-09-09T17:12:21.777Z,8.85
2023-09-09T17:14:49.220Z,9.05
2023-09-09T17:17:16.675Z,9.70
2023-09-09T17:19:45.743Z,9.38
2023-09-09T17:22:13.194Z,9.30
2023-09-09T17:24:40.600Z,9.70
2023-09-09T17:27:08.072Z,10.20
2023-09-09T17:29:35.512Z,9.55
2023-09-09T17:32:04.326Z,9.75
2023-09-09T17:34:39.374Z,9.93
2023-09-09T17:37:08.210Z,10.20
2023-09-09T17:39:35.766Z,11.00
2023-09-09T17:42:03.173Z,11.40
2023-09-09T17:44:30.601Z,12.63
2023-09-09T17:46:58.115Z,12.50
2023-09-09T17:49:27.033Z,12.93
2023-09-09T17:51:55.268Z,13.02
2023-09-09T17:54:26.577Z,14.05
2023-09-09T17:56:55.682Z,11.93
2023-09-09T17:59:23.314Z,11.25
2023-09-09T18:01:50.833Z,10.98
2023-09-09T18:04:19.404Z,11.45
2023-09-09T18:06:48.500Z,10.40
2023-09-09T18:09:16.000Z,9.45
2023-09-09T18:11:44.787Z,9.65
2023-09-09T18:14:12.240Z,9.50
2023-09-09T18:16:39.810Z,9.90
2023-09-09T18:19:07.343Z,10.52
2023-09-09T18:21:34.790Z,9.80
2023-09-09T18:24:02.526Z,10.50
2023-09-09T18:26:30.798Z,9.98
2023-09-09T18:28:59.715Z,9.40
2023-09-09T18:31:27.379Z,9.27
2023-09-09T18:33:54.907Z,9.70
2023-09-09T18:36:22.368Z,9.85
2023-09-09T18:38:49.801Z,9.80
2023-09-09T18:41:17.289Z,9.68
2023-09-09T18:43:46.616Z,9.75
2023-09-09T18:46:15.469Z,9.80
2023-09-09T18:48:43.865Z,8.98
2023-09-09T18:51:11.424Z,10.10
2023-09-09T18:53:38.825Z,9.88
2023-09-09T18:56:06.318Z,9.48
2023-09-09T18:58:33.842Z,9.65
2023-09-09T19:01:01.357Z,9.68
2023-09-09T19:03:31.145Z,10.48
2023-09-09T19:05:59.071Z,10.52
2023-09-09T19:08:27.530Z,10.38
2023-09-09T19:10:55.099Z,10.25
2023-09-09T19:13:22.589Z,10.20
2023-09-09T19:15:51.004Z,10.02
2023-09-09T19:18:18.548Z,10.95
2023-09-09T19:20:47.332Z,9.98
2023-09-09T19:23:14.794Z,10.27
2023-09-09T19:25:42.290Z,10.00
2023-09-09T19:28:09.903Z,9.95
2023-09-09T19:30:37.405Z,10.38
2023-09-09T19:33:05.322Z,10.57
2023-09-09T19:35:32.776Z,9.93
2023-09-09T19:38:02.421Z,9.95
2023-09-09T19:40:30.018Z,9.77
2023-09-09T19:42:57.478Z,10.75
2023-09-09T19:45:25.020Z,10.05
2023-09-09T19:47:52.579Z,10.57
2023-09-09T19:50:20.126Z,10.70
2023-09-09T19:52:48.096Z,10.20
2023-09-09T19:55:17.160Z,9.60
2023-09-09T19:57:44.592Z,10.73
2023-09-09T20:00:12.589Z,10.65
2023-09-09T20:02:40.178Z,10.50
2023-09-09T20:05:08.011Z,10.98
2023-09-09T20:07:35.535Z,10.73
2023-09-09T20:10:10.182Z,11.02
2023-09-09T20:12:39.107Z,10.73
2023-09-09T20:15:07.250Z,11.23
2023-09-09T20:17:34.771Z,11.00
2023-09-09T20:20:08.110Z,11.55
2023-09-09T20:22:35.612Z,11.65
2023-09-09T20:25:03.102Z,10.95
2023-09-09T20:27:30.574Z,11.65
2023-09-09T20:29:59.564Z,14.50
2023-09-09T20:32:27.083Z,12.98
2023-09-09T20:34:56.398Z,11.32
2023-09-09T20:37:25.338Z,11.00
2023-09-09T20:39:52.825Z,11.40
2023-09-09T20:42:20.269Z,11.75
2023-09-09T20:44:47.678Z,12.32
2023-09-09T20:47:18.392Z,12.52
2023-09-09T20:49:45.936Z,12.25
2023-09-09T20:52:13.417Z,12.68
2023-09-09T20:54:41.012Z,13.00
2023-09-09T20:57:08.867Z,12.77
2023-09-09T20:59:36.326Z,13.23
2023-09-09T21:02:04.860Z,12.32
2023-09-09T21:04:33.855Z,11.75
2023-09-09T21:07:01.661Z,13.32
2023-09-09T21:09:29.090Z,14.30
2023-09-09T21:11:56.566Z,13.70
2023-09-09T21:14:24.027Z,13.60
2023-09-09T21:16:51.672Z,13.48
2023-09-09T21:19:19.173Z,12.77
2023-09-09T21:21:47.992Z,12.63
2023-09-09T21:24:15.701Z,12.85
2023-09-09T21:26:45.730Z,12.88
2023-09-09T21:29:13.381Z,13.82
2023-09-09T21:31:40.922Z,13.18
2023-09-09T21:34:08.846Z,12.02
2023-09-09T21:36:36.303Z,13.15
2023-09-09T21:39:05.299Z,13.57
2023-09-09T21:41:32.772Z,14.30
2023-09-09T21:44:00.257Z,13.88
2023-09-09T21:46:27.938Z,13.82
2023-09-09T21:48:55.472Z,11.93
2023-09-09T21:51:22.929Z,12.80
2023-09-09T21:53:50.359Z,13.10
2023-09-09T21:56:19.232Z,12.00
2023-09-09T21:58:46.726Z,13.45
2023-09-09T22:01:14.782Z,13.48
2023-09-09T22:03:42.982Z,12.68
2023-09-09T22:06:10.467Z,12.63
2023-09-09T22:08:38.300Z,13.68
2023-09-09T22:11:07.357Z,12.50
2023-09-09T22:13:36.302Z,13.65
2023-09-09T22:16:07.627Z,13.27
2023-09-09T22:18:35.151Z,13.35
2023-09-09T22:21:04.135Z,12.60
2023-09-09T22:23:31.591Z,12.82
2023-09-09T22:25:59.038Z,13.23
2023-09-09T22:28:26.569Z,13.93
2023-09-09T22:30:55.425Z,13.57
2023-09-09T22:33:22.916Z,13.40
2023-09-09T22:35:50.780Z,13.77
2023-09-09T22:38:18.248Z,13.35
2023-09-09T22:40:46.494Z,14.07
2023-09-09T22:43:13.991Z,13.77
2023-09-09T22:45:41.499Z,13.73
2023-09-09T22:48:10.309Z,13.88
2023-09-09T22:50:37.756Z,13.27
2023-09-09T22:53:05.500Z,12.90
2023-09-09T22:55:33.059Z,13.80
2023-09-09T22:58:00.584Z,13.40
2023-09-09T23:00:28.953Z,12.50
2023-09-09T23:02:58.746Z,13.40
2023-09-09T23:05:27.784Z,13.15
2023-09-09T23:07:55.305Z,13.52
2023-09-09T23:10:22.740Z,13.73
2023-09-09T23:12:50.227Z,12.85
2023-09-09T23:15:18.684Z,13.40
2023-09-09T23:17:46.240Z,13.50
2023-09-09T23:20:13.785Z,13.20
2023-09-09T23:22:45.154Z,13.77
2023-09-09T23:25:13.438Z,12.63
2023-09-09T23:27:40.864Z,13.60
2023-09-09T23:30:10.734Z,12.73
2023-09-09T23:32:38.285Z,13.00
2023-09-09T23:35:06.116Z,12.93
2023-09-09T23:37:33.653Z,12.95
2023-09-09T23:40:02.504Z,12.93
2023-09-09T23:42:29.958Z,13.00
2023-09-09T23:44:57.372Z,13.57
2023-09-09T23:47:24.791Z,12.57
2023-09-09T23:49:52.265Z,12.30
2023-09-09T23:52:20.253Z,12.27
2023-09-09T23:54:47.736Z,12.13
2023-09-09T23:57:16.856Z,12.70
2023-09-09T23:59:44.429Z,12.98
